sensor_id;sensor_type;location;lat;lon;timestamp;P1;durP1;ratioP1;P2;durP2;ratioP2
11743;SDS011;5929;51.906;7.674;2023-07-02T00:02:06;10.85;;;5.85;;
11743;SDS011;5929;51.906;7.674;2023-07-02T00:04:33;10.10;;;6.45;;
11743;SDS011;5929;51.906;7.674;2023-07-02T00:07:00;9.40;;;6.43;;
11743;SDS011;5929;51.906;7.674;2023-07-02T00:09:28;7.50;;;5.90;;
11743;SDS011;5929;51.906;7.674;2023-07-02T00:11:54;7.85;;;5.80;;
11743;SDS011;5929;51.906;7.674;2023-07-02T00:14:21;8.20;;;5.88;;
11743;SDS011;5929;51.906;7.674;2023-07-02T00:16:48;8.80;;;5.68;;
11743;SDS011;5929;51.906;7.674;2023-07-02T00:19:15;9.65;;;5.97;;
11743;SDS011;5929;51.906;7.674;2023-07-02T00:21:42;7.78;;;5.78;;
11743;SDS011;5929;51.906;7.674;2023-07-02T00:24:09;8.88;;;6.13;;
11743;SDS011;5929;51.906;7.674;2023-07-02T00:26:37;8.93;;;6.40;;
11743;SDS011;5929;51.906;7.674;2023-07-02T00:29:05;8.80;;;6.63;;
11743;SDS011;5929;51.906;7.674;2023-07-02T00:31:33;11.52;;;7.40;;
11743;SDS011;5929;51.906;7.674;2023-07-02T00:34:00;8.88;;;7.10;;
11743;SDS011;5929;51.906;7.674;2023-07-02T00:36:27;12.38;;;7.68;;
11743;SDS011;5929;51.906;7.674;2023-07-02T00:38:54;11.00;;;7.38;;
11743;SDS011;5929;51.906;7.674;2023-07-02T00:41:22;12.25;;;7.53;;
11743;SDS011;5929;51.906;7.674;2023-07-02T00:43:51;10.82;;;7.60;;
11743;SDS011;5929;51.906;7.674;2023-07-02T00:46:20;9.93;;;7.50;;
11743;SDS011;5929;51.906;7.674;2023-07-02T00:48:48;9.85;;;7.57;;
11743;SDS011;5929;51.906;7.674;2023-07-02T00:51:16;11.25;;;8.27;;
11743;SDS011;5929;51.906;7.674;2023-07-02T00:53:44;11.32;;;8.82;;
11743;SDS011;5929;51.906;7.674;2023-07-02T00:56:12;12.63;;;9.23;;
11743;SDS011;5929;51.906;7.674;2023-07-02T00:58:40;15.32;;;9.32;;
11743;SDS011;5929;51.906;7.674;2023-07-02T01:01:15;11.55;;;8.43;;
11743;SDS011;5929;51.906;7.674;2023-07-02T01:03:49;12.77;;;8.40;;
11743;SDS011;5929;51.906;7.674;2023-07-02T01:06:19;13.60;;;8.50;;
11743;SDS011;5929;51.906;7.674;2023-07-02T01:08:53;11.20;;;8.52;;
11743;SDS011;5929;51.906;7.674;2023-07-02T01:11:22;12.35;;;8.65;;
11743;SDS011;5929;51.906;7.674;2023-07-02T01:14:02;11.13;;;8.25;;
11743;SDS011;5929;51.906;7.674;2023-07-02T01:16:33;11.38;;;8.52;;
11743;SDS011;5929;51.906;7.674;2023-07-02T01:19:02;13.63;;;8.90;;
11743;SDS011;5929;51.906;7.674;2023-07-02T01:21:35;12.35;;;8.73;;
11743;SDS011;5929;51.906;7.674;2023-07-02T01:24:03;12.93;;;8.60;;
11743;SDS011;5929;51.906;7.674;2023-07-02T01:26:31;11.73;;;8.68;;
11743;SDS011;5929;51.906;7.674;2023-07-02T01:28:59;11.98;;;8.50;;
11743;SDS011;5929;51.906;7.674;2023-07-02T01:31:26;13.60;;;8.38;;
11743;SDS011;5929;51.906;7.674;2023-07-02T01:33:56;12.02;;;8.75;;
11743;SDS011;5929;51.906;7.674;2023-07-02T01:36:23;15.88;;;8.82;;
11743;SDS011;5929;51.906;7.674;2023-07-02T01:38:51;12.45;;;9.23;;
11743;SDS011;5929;51.906;7.674;2023-07-02T01:41:18;14.63;;;9.00;;
11743;SDS011;5929;51.906;7.674;2023-07-02T01:43:45;10.85;;;8.15;;
11743;SDS011;5929;51.906;7.674;2023-07-02T01:46:11;14.90;;;8.98;;
11743;SDS011;5929;51.906;7.674;2023-07-02T01:48:38;13.80;;;8.80;;
11743;SDS011;5929;51.906;7.674;2023-07-02T01:51:05;14.15;;;8.93;;
11743;SDS011;5929;51.906;7.674;2023-07-02T01:53:32;14.80;;;9.40;;
11743;SDS011;5929;51.906;7.674;2023-07-02T01:56:00;12.93;;;8.80;;
11743;SDS011;5929;51.906;7.674;2023-07-02T02:13:56;13.85;;;8.93;;
11743;SDS011;5929;51.906;7.674;2023-07-02T02:16:23;14.38;;;8.43;;
11743;SDS011;5929;51.906;7.674;2023-07-02T02:18:50;14.57;;;8.82;;
11743;SDS011;5929;51.906;7.674;2023-07-02T02:21:17;15.30;;;8.27;;
11743;SDS011;5929;51.906;7.674;2023-07-02T02:23:44;11.65;;;8.45;;
11743;SDS011;5929;51.906;7.674;2023-07-02T02:26:13;14.98;;;8.57;;
11743;SDS011;5929;51.906;7.674;2023-07-02T02:28:40;18.55;;;9.32;;
11743;SDS011;5929;51.906;7.674;2023-07-02T02:31:08;12.52;;;8.32;;
11743;SDS011;5929;51.906;7.674;2023-07-02T02:33:35;15.57;;;8.82;;
11743;SDS011;5929;51.906;7.674;2023-07-02T02:36:02;14.38;;;8.57;;
11743;SDS011;5929;51.906;7.674;2023-07-02T02:38:29;13.60;;;8.57;;
11743;SDS011;5929;51.906;7.674;2023-07-02T02:40:56;16.48;;;8.55;;
11743;SDS011;5929;51.906;7.674;2023-07-02T02:43:23;19.85;;;8.50;;
11743;SDS011;5929;51.906;7.674;2023-07-02T02:45:49;13.52;;;8.07;;
11743;SDS011;5929;51.906;7.674;2023-07-02T02:48:18;14.40;;;8.15;;
11743;SDS011;5929;51.906;7.674;2023-07-02T02:50:45;16.63;;;8.65;;
11743;SDS011;5929;51.906;7.674;2023-07-02T02:53:13;18.77;;;8.45;;
11743;SDS011;5929;51.906;7.674;2023-07-02T02:55:40;19.77;;;8.85;;
11743;SDS011;5929;51.906;7.674;2023-07-02T02:58:07;15.27;;;8.43;;
11743;SDS011;5929;51.906;7.674;2023-07-02T03:00:34;16.23;;;8.55;;
11743;SDS011;5929;51.906;7.674;2023-07-02T03:03:00;17.25;;;8.50;;
11743;SDS011;5929;51.906;7.674;2023-07-02T03:05:29;15.63;;;7.57;;
11743;SDS011;5929;51.906;7.674;2023-07-02T03:07:56;15.10;;;8.68;;
11743;SDS011;5929;51.906;7.674;2023-07-02T03:10:22;17.05;;;8.80;;
11743;SDS011;5929;51.906;7.674;2023-07-02T03:12:49;16.80;;;9.30;;
11743;SDS011;5929;51.906;7.674;2023-07-02T03:15:16;16.25;;;8.88;;
11743;SDS011;5929;51.906;7.674;2023-07-02T03:17:43;16.80;;;8.98;;
11743;SDS011;5929;51.906;7.674;2023-07-02T03:20:10;15.55;;;8.52;;
11743;SDS011;5929;51.906;7.674;2023-07-02T03:22:38;17.00;;;9.25;;
11743;SDS011;5929;51.906;7.674;2023-07-02T03:25:05;13.27;;;9.27;;
11743;SDS011;5929;51.906;7.674;2023-07-02T03:27:33;16.70;;;9.52;;
11743;SDS011;5929;51.906;7.674;2023-07-02T03:29:59;16.58;;;10.23;;
11743;SDS011;5929;51.906;7.674;2023-07-02T03:32:26;16.70;;;10.68;;
11743;SDS011;5929;51.906;7.674;2023-07-02T03:34:53;19.95;;;10.05;;
11743;SDS011;5929;51.906;7.674;2023-07-02T03:37:20;21.52;;;11.55;;
11743;SDS011;5929;51.906;7.674;2023-07-02T03:39:48;18.25;;;11.27;;
11743;SDS011;5929;51.906;7.674;2023-07-02T03:42:15;19.05;;;11.95;;
11743;SDS011;5929;51.906;7.674;2023-07-02T03:44:42;24.08;;;12.57;;
11743;SDS011;5929;51.906;7.674;2023-07-02T03:47:11;22.58;;;12.45;;
11743;SDS011;5929;51.906;7.674;2023-07-02T03:49:41;23.65;;;13.00;;
11743;SDS011;5929;51.906;7.674;2023-07-02T03:52:08;20.35;;;12.63;;
11743;SDS011;5929;51.906;7.674;2023-07-02T03:54:34;22.38;;;11.45;;
11743;SDS011;5929;51.906;7.674;2023-07-02T03:57:03;19.83;;;11.90;;
11743;SDS011;5929;51.906;7.674;2023-07-02T03:59:30;21.45;;;11.45;;
11743;SDS011;5929;51.906;7.674;2023-07-02T04:01:57;23.05;;;11.63;;
11743;SDS011;5929;51.906;7.674;2023-07-02T04:04:23;25.30;;;12.20;;
11743;SDS011;5929;51.906;7.674;2023-07-02T04:06:50;21.25;;;11.20;;
11743;SDS011;5929;51.906;7.674;2023-07-02T04:09:17;19.00;;;11.15;;
11743;SDS011;5929;51.906;7.674;2023-07-02T04:11:44;25.17;;;11.02;;
11743;SDS011;5929;51.906;7.674;2023-07-02T04:14:13;25.40;;;10.93;;
11743;SDS011;5929;51.906;7.674;2023-07-02T04:16:39;22.15;;;10.20;;
11743;SDS011;5929;51.906;7.674;2023-07-02T04:19:07;23.10;;;10.40;;
11743;SDS011;5929;51.906;7.674;2023-07-02T04:21:34;20.40;;;10.15;;
11743;SDS011;5929;51.906;7.674;2023-07-02T04:24:01;19.75;;;9.30;;
11743;SDS011;5929;51.906;7.674;2023-07-02T04:26:28;17.92;;;8.18;;
11743;SDS011;5929;51.906;7.674;2023-07-02T04:28:55;23.88;;;9.63;;
11743;SDS011;5929;51.906;7.674;2023-07-02T04:31:23;16.50;;;8.20;;
11743;SDS011;5929;51.906;7.674;2023-07-02T04:33:51;17.75;;;9.68;;
11743;SDS011;5929;51.906;7.674;2023-07-02T04:36:18;18.60;;;8.50;;
11743;SDS011;5929;51.906;7.674;2023-07-02T04:38:44;16.55;;;8.30;;
11743;SDS011;5929;51.906;7.674;2023-07-02T04:41:11;22.13;;;8.30;;
11743;SDS011;5929;51.906;7.674;2023-07-02T04:43:38;18.70;;;8.68;;
11743;SDS011;5929;51.906;7.674;2023-07-02T04:46:05;15.00;;;7.20;;
11743;SDS011;5929;51.906;7.674;2023-07-02T04:48:34;26.30;;;8.63;;
11743;SDS011;5929;51.906;7.674;2023-07-02T04:51:01;16.60;;;8.05;;
11743;SDS011;5929;51.906;7.674;2023-07-02T04:53:27;17.20;;;8.45;;
11743;SDS011;5929;51.906;7.674;2023-07-02T04:55:54;19.33;;;8.07;;
11743;SDS011;5929;51.906;7.674;2023-07-02T04:58:22;18.75;;;8.32;;
11743;SDS011;5929;51.906;7.674;2023-07-02T05:00:49;17.02;;;7.47;;
11743;SDS011;5929;51.906;7.674;2023-07-02T05:03:16;21.60;;;7.25;;
11743;SDS011;5929;51.906;7.674;2023-07-02T05:05:44;20.17;;;8.18;;
11743;SDS011;5929;51.906;7.674;2023-07-02T05:08:11;13.95;;;6.60;;
11743;SDS011;5929;51.906;7.674;2023-07-02T05:10:38;19.98;;;8.27;;
11743;SDS011;5929;51.906;7.674;2023-07-02T05:13:04;16.55;;;8.30;;
11743;SDS011;5929;51.906;7.674;2023-07-02T05:15:31;17.33;;;7.72;;
11743;SDS011;5929;51.906;7.674;2023-07-02T05:17:58;23.30;;;8.30;;
11743;SDS011;5929;51.906;7.674;2023-07-02T05:20:25;20.85;;;7.85;;
11743;SDS011;5929;51.906;7.674;2023-07-02T05:22:53;16.75;;;7.15;;
11743;SDS011;5929;51.906;7.674;2023-07-02T05:25:20;18.75;;;7.30;;
11743;SDS011;5929;51.906;7.674;2023-07-02T05:27:47;16.75;;;7.95;;
11743;SDS011;5929;51.906;7.674;2023-07-02T05:30:14;19.73;;;7.57;;
11743;SDS011;5929;51.906;7.674;2023-07-02T05:32:41;20.17;;;7.72;;
11743;SDS011;5929;51.906;7.674;2023-07-02T05:35:08;20.65;;;8.25;;
11743;SDS011;5929;51.906;7.674;2023-07-02T05:37:35;21.77;;;7.97;;
11743;SDS011;5929;51.906;7.674;2023-07-02T05:40:04;21.40;;;8.05;;
11743;SDS011;5929;51.906;7.674;2023-07-02T05:42:31;19.33;;;7.85;;
11743;SDS011;5929;51.906;7.674;2023-07-02T05:44:58;19.05;;;6.97;;
11743;SDS011;5929;51.906;7.674;2023-07-02T05:47:25;20.23;;;7.50;;
11743;SDS011;5929;51.906;7.674;2023-07-02T05:49:52;18.67;;;7.78;;
11743;SDS011;5929;51.906;7.674;2023-07-02T05:52:18;18.42;;;7.30;;
11743;SDS011;5929;51.906;7.674;2023-07-02T05:54:47;19.52;;;7.20;;
11743;SDS011;5929;51.906;7.674;2023-07-02T05:57:15;18.35;;;7.75;;
11743;SDS011;5929;51.906;7.674;2023-07-02T05:59:42;17.02;;;8.40;;
11743;SDS011;5929;51.906;7.674;2023-07-02T06:02:09;23.13;;;8.32;;
11743;SDS011;5929;51.906;7.674;2023-07-02T06:04:36;27.02;;;8.88;;
11743;SDS011;5929;51.906;7.674;2023-07-02T06:07:03;22.00;;;8.32;;
11743;SDS011;5929;51.906;7.674;2023-07-02T06:09:30;24.42;;;8.55;;
11743;SDS011;5929;51.906;7.674;2023-07-02T06:11:57;23.92;;;7.97;;
11743;SDS011;5929;51.906;7.674;2023-07-02T06:14:25;22.95;;;8.68;;
11743;SDS011;5929;51.906;7.674;2023-07-02T06:16:52;25.38;;;8.35;;
11743;SDS011;5929;51.906;7.674;2023-07-02T06:19:22;18.20;;;7.25;;
11743;SDS011;5929;51.906;7.674;2023-07-02T06:21:49;22.88;;;8.15;;
11743;SDS011;5929;51.906;7.674;2023-07-02T06:24:16;19.92;;;8.30;;
11743;SDS011;5929;51.906;7.674;2023-07-02T06:26:42;22.23;;;8.10;;
11743;SDS011;5929;51.906;7.674;2023-07-02T06:29:09;18.65;;;7.35;;
11743;SDS011;5929;51.906;7.674;2023-07-02T06:31:37;19.40;;;8.35;;
11743;SDS011;5929;51.906;7.674;2023-07-02T06:34:04;21.73;;;8.77;;
11743;SDS011;5929;51.906;7.674;2023-07-02T06:36:32;16.77;;;8.38;;
11743;SDS011;5929;51.906;7.674;2023-07-02T06:38:59;19.15;;;7.95;;
11743;SDS011;5929;51.906;7.674;2023-07-02T06:41:26;20.50;;;8.32;;
11743;SDS011;5929;51.906;7.674;2023-07-02T06:43:53;20.80;;;8.38;;
11743;SDS011;5929;51.906;7.674;2023-07-02T06:46:20;19.90;;;8.02;;
11743;SDS011;5929;51.906;7.674;2023-07-02T06:48:48;20.48;;;8.40;;
11743;SDS011;5929;51.906;7.674;2023-07-02T06:51:15;21.42;;;8.63;;
11743;SDS011;5929;51.906;7.674;2023-07-02T06:53:41;20.77;;;8.15;;
11743;SDS011;5929;51.906;7.674;2023-07-02T06:56:08;20.23;;;8.25;;
11743;SDS011;5929;51.906;7.674;2023-07-02T06:58:35;20.92;;;8.55;;
11743;SDS011;5929;51.906;7.674;2023-07-02T07:01:02;17.27;;;8.35;;
11743;SDS011;5929;51.906;7.674;2023-07-02T07:03:29;20.88;;;8.13;;
11743;SDS011;5929;51.906;7.674;2023-07-02T07:05:57;25.33;;;9.45;;
11743;SDS011;5929;51.906;7.674;2023-07-02T07:08:24;21.13;;;9.05;;
11743;SDS011;5929;51.906;7.674;2023-07-02T07:10:51;22.08;;;9.20;;
11743;SDS011;5929;51.906;7.674;2023-07-02T07:13:17;23.05;;;9.43;;
11743;SDS011;5929;51.906;7.674;2023-07-02T07:15:48;21.30;;;8.05;;
11743;SDS011;5929;51.906;7.674;2023-07-02T07:18:15;20.48;;;8.98;;
11743;SDS011;5929;51.906;7.674;2023-07-02T07:20:43;20.27;;;8.68;;
11743;SDS011;5929;51.906;7.674;2023-07-02T07:23:11;18.05;;;8.23;;
11743;SDS011;5929;51.906;7.674;2023-07-02T07:25:38;22.20;;;8.35;;
11743;SDS011;5929;51.906;7.674;2023-07-02T07:28:05;19.20;;;8.35;;
11743;SDS011;5929;51.906;7.674;2023-07-02T07:30:32;25.58;;;8.38;;
11743;SDS011;5929;51.906;7.674;2023-07-02T07:32:58;17.65;;;7.85;;
11743;SDS011;5929;51.906;7.674;2023-07-02T07:35:25;18.77;;;8.35;;
11743;SDS011;5929;51.906;7.674;2023-07-02T07:37:52;21.98;;;8.27;;
11743;SDS011;5929;51.906;7.674;2023-07-02T07:40:22;18.95;;;8.57;;
11743;SDS011;5929;51.906;7.674;2023-07-02T07:42:49;21.30;;;8.70;;
11743;SDS011;5929;51.906;7.674;2023-07-02T07:45:18;22.35;;;8.32;;
11743;SDS011;5929;51.906;7.674;2023-07-02T07:47:45;17.90;;;7.70;;
11743;SDS011;5929;51.906;7.674;2023-07-02T07:50:12;15.35;;;7.38;;
11743;SDS011;5929;51.906;7.674;2023-07-02T07:52:39;14.98;;;6.88;;
11743;SDS011;5929;51.906;7.674;2023-07-02T07:55:07;26.85;;;7.78;;
11743;SDS011;5929;51.906;7.674;2023-07-02T07:57:36;19.33;;;7.63;;
11743;SDS011;5929;51.906;7.674;2023-07-02T08:00:04;14.65;;;6.97;;
11743;SDS011;5929;51.906;7.674;2023-07-02T08:02:33;17.10;;;7.45;;
11743;SDS011;5929;51.906;7.674;2023-07-02T08:05:00;18.85;;;7.03;;
11743;SDS011;5929;51.906;7.674;2023-07-02T08:07:27;17.58;;;6.78;;
11743;SDS011;5929;51.906;7.674;2023-07-02T08:09:54;17.88;;;7.53;;
11743;SDS011;5929;51.906;7.674;2023-07-02T08:12:21;15.65;;;7.22;;
11743;SDS011;5929;51.906;7.674;2023-07-02T08:14:50;18.38;;;7.72;;
11743;SDS011;5929;51.906;7.674;2023-07-02T08:17:16;17.67;;;7.20;;
11743;SDS011;5929;51.906;7.674;2023-07-02T08:19:43;17.90;;;6.53;;
11743;SDS011;5929;51.906;7.674;2023-07-02T08:22:11;16.38;;;6.93;;
11743;SDS011;5929;51.906;7.674;2023-07-02T08:24:38;13.70;;;6.93;;
11743;SDS011;5929;51.906;7.674;2023-07-02T08:27:05;15.05;;;7.03;;
11743;SDS011;5929;51.906;7.674;2023-07-02T08:29:32;16.08;;;7.03;;
11743;SDS011;5929;51.906;7.674;2023-07-02T08:32:00;14.63;;;6.13;;
11743;SDS011;5929;51.906;7.674;2023-07-02T08:34:27;14.80;;;6.03;;
11743;SDS011;5929;51.906;7.674;2023-07-02T08:36:54;13.90;;;6.00;;
11743;SDS011;5929;51.906;7.674;2023-07-02T08:39:21;15.38;;;6.15;;
11743;SDS011;5929;51.906;7.674;2023-07-02T08:41:48;15.35;;;6.15;;
11743;SDS011;5929;51.906;7.674;2023-07-02T08:44:16;14.25;;;6.35;;
11743;SDS011;5929;51.906;7.674;2023-07-02T08:46:46;16.30;;;5.82;;
11743;SDS011;5929;51.906;7.674;2023-07-02T08:49:17;15.32;;;6.45;;
11743;SDS011;5929;51.906;7.674;2023-07-02T08:51:44;14.23;;;6.18;;
11743;SDS011;5929;51.906;7.674;2023-07-02T08:54:11;15.35;;;6.80;;
11743;SDS011;5929;51.906;7.674;2023-07-02T08:56:39;16.58;;;7.03;;
11743;SDS011;5929;51.906;7.674;2023-07-02T08:59:06;14.82;;;6.35;;
11743;SDS011;5929;51.906;7.674;2023-07-02T09:01:43;11.80;;;6.00;;
11743;SDS011;5929;51.906;7.674;2023-07-02T09:04:14;12.23;;;5.85;;
11743;SDS011;5929;51.906;7.674;2023-07-02T09:06:43;12.15;;;5.75;;
11743;SDS011;5929;51.906;7.674;2023-07-02T09:09:10;13.00;;;6.50;;
11743;SDS011;5929;51.906;7.674;2023-07-02T09:11:46;14.98;;;6.00;;
11743;SDS011;5929;51.906;7.674;2023-07-02T09:14:23;13.25;;;5.85;;
11743;SDS011;5929;51.906;7.674;2023-07-02T09:17:00;13.35;;;6.38;;
11743;SDS011;5929;51.906;7.674;2023-07-02T09:19:29;14.00;;;6.18;;
11743;SDS011;5929;51.906;7.674;2023-07-02T09:21:57;16.17;;;6.35;;
11743;SDS011;5929;51.906;7.674;2023-07-02T09:24:26;15.32;;;6.88;;
11743;SDS011;5929;51.906;7.674;2023-07-02T09:26:54;13.82;;;6.35;;
11743;SDS011;5929;51.906;7.674;2023-07-02T09:29:23;14.27;;;6.13;;
11743;SDS011;5929;51.906;7.674;2023-07-02T09:31:51;12.77;;;6.68;;
11743;SDS011;5929;51.906;7.674;2023-07-02T09:34:18;17.20;;;6.43;;
11743;SDS011;5929;51.906;7.674;2023-07-02T09:36:46;17.15;;;6.88;;
11743;SDS011;5929;51.906;7.674;2023-07-02T09:39:14;18.95;;;6.55;;
11743;SDS011;5929;51.906;7.674;2023-07-02T09:41:47;15.20;;;6.15;;
11743;SDS011;5929;51.906;7.674;2023-07-02T09:44:16;16.55;;;6.53;;
11743;SDS011;5929;51.906;7.674;2023-07-02T09:46:45;14.07;;;6.13;;
11743;SDS011;5929;51.906;7.674;2023-07-02T09:49:16;15.75;;;6.05;;
11743;SDS011;5929;51.906;7.674;2023-07-02T09:51:48;12.40;;;6.15;;
11743;SDS011;5929;51.906;7.674;2023-07-02T09:54:16;19.45;;;8.05;;
11743;SDS011;5929;51.906;7.674;2023-07-02T09:56:45;16.17;;;6.75;;
11743;SDS011;5929;51.906;7.674;2023-07-02T09:59:12;17.60;;;7.13;;
11743;SDS011;5929;51.906;7.674;2023-07-02T10:01:40;19.25;;;7.13;;
11743;SDS011;5929;51.906;7.674;2023-07-02T10:04:10;15.82;;;6.65;;
11743;SDS011;5929;51.906;7.674;2023-07-02T10:06:44;14.32;;;6.38;;
11743;SDS011;5929;51.906;7.674;2023-07-02T10:09:13;15.93;;;7.03;;
11743;SDS011;5929;51.906;7.674;2023-07-02T10:11:40;14.98;;;5.90;;
11743;SDS011;5929;51.906;7.674;2023-07-02T10:14:07;12.75;;;6.45;;
11743;SDS011;5929;51.906;7.674;2023-07-02T10:16:34;16.23;;;6.75;;
11743;SDS011;5929;51.906;7.674;2023-07-02T10:19:14;14.23;;;6.57;;
11743;SDS011;5929;51.906;7.674;2023-07-02T10:21:40;14.13;;;6.70;;
11743;SDS011;5929;51.906;7.674;2023-07-02T10:24:11;17.58;;;6.97;;
11743;SDS011;5929;51.906;7.674;2023-07-02T10:26:50;16.30;;;6.32;;
11743;SDS011;5929;51.906;7.674;2023-07-02T10:29:18;16.05;;;6.65;;
11743;SDS011;5929;51.906;7.674;2023-07-02T10:31:49;18.05;;;7.10;;
11743;SDS011;5929;51.906;7.674;2023-07-02T10:34:27;16.65;;;6.35;;
11743;SDS011;5929;51.906;7.674;2023-07-02T10:36:55;18.88;;;6.95;;
11743;SDS011;5929;51.906;7.674;2023-07-02T10:39:22;15.18;;;6.78;;
11743;SDS011;5929;51.906;7.674;2023-07-02T10:41:50;15.55;;;6.60;;
11743;SDS011;5929;51.906;7.674;2023-07-02T10:44:17;15.65;;;7.05;;
11743;SDS011;5929;51.906;7.674;2023-07-02T10:46:44;16.67;;;6.68;;
11743;SDS011;5929;51.906;7.674;2023-07-02T10:49:11;16.85;;;6.50;;
11743;SDS011;5929;51.906;7.674;2023-07-02T10:51:38;14.52;;;6.22;;
11743;SDS011;5929;51.906;7.674;2023-07-02T10:54:05;13.65;;;6.63;;
11743;SDS011;5929;51.906;7.674;2023-07-02T10:56:32;16.65;;;6.15;;
11743;SDS011;5929;51.906;7.674;2023-07-02T10:59:00;15.48;;;7.10;;
11743;SDS011;5929;51.906;7.674;2023-07-02T11:01:30;14.90;;;6.55;;
11743;SDS011;5929;51.906;7.674;2023-07-02T11:03:58;13.57;;;6.55;;
11743;SDS011;5929;51.906;7.674;2023-07-02T11:06:26;14.88;;;6.53;;
11743;SDS011;5929;51.906;7.674;2023-07-02T11:08:53;15.38;;;6.90;;
11743;SDS011;5929;51.906;7.674;2023-07-02T11:11:23;17.50;;;6.88;;
11743;SDS011;5929;51.906;7.674;2023-07-02T11:13:51;14.88;;;6.28;;
11743;SDS011;5929;51.906;7.674;2023-07-02T11:16:23;14.85;;;5.95;;
11743;SDS011;5929;51.906;7.674;2023-07-02T11:18:52;15.48;;;6.68;;
11743;SDS011;5929;51.906;7.674;2023-07-02T11:21:19;15.25;;;6.10;;
11743;SDS011;5929;51.906;7.674;2023-07-02T11:23:46;14.07;;;6.53;;
11743;SDS011;5929;51.906;7.674;2023-07-02T11:26:13;11.52;;;5.70;;
11743;SDS011;5929;51.906;7.674;2023-07-02T11:28:50;12.35;;;5.68;;
11743;SDS011;5929;51.906;7.674;2023-07-02T11:31:27;15.75;;;5.55;;
11743;SDS011;5929;51.906;7.674;2023-07-02T11:33:56;14.75;;;5.78;;
11743;SDS011;5929;51.906;7.674;2023-07-02T11:36:23;11.90;;;5.47;;
11743;SDS011;5929;51.906;7.674;2023-07-02T11:38:51;12.45;;;5.70;;
11743;SDS011;5929;51.906;7.674;2023-07-02T11:41:18;14.80;;;6.07;;
11743;SDS011;5929;51.906;7.674;2023-07-02T11:43:46;13.70;;;5.47;;
11743;SDS011;5929;51.906;7.674;2023-07-02T11:46:13;13.68;;;5.45;;
11743;SDS011;5929;51.906;7.674;2023-07-02T11:48:41;12.57;;;5.40;;
11743;SDS011;5929;51.906;7.674;2023-07-02T11:51:08;14.07;;;5.70;;
11743;SDS011;5929;51.906;7.674;2023-07-02T11:53:35;13.57;;;5.53;;
11743;SDS011;5929;51.906;7.674;2023-07-02T11:56:02;11.40;;;5.57;;
11743;SDS011;5929;51.906;7.674;2023-07-02T11:58:29;12.25;;;5.97;;
11743;SDS011;5929;51.906;7.674;2023-07-02T12:00:56;12.98;;;5.25;;
11743;SDS011;5929;51.906;7.674;2023-07-02T12:03:23;12.57;;;5.60;;
11743;SDS011;5929;51.906;7.674;2023-07-02T12:05:51;12.63;;;5.82;;
11743;SDS011;5929;51.906;7.674;2023-07-02T12:08:18;13.82;;;6.20;;
11743;SDS011;5929;51.906;7.674;2023-07-02T12:10:45;11.95;;;5.57;;
11743;SDS011;5929;51.906;7.674;2023-07-02T12:13:11;12.48;;;5.63;;
11743;SDS011;5929;51.906;7.674;2023-07-02T12:15:38;11.48;;;5.53;;
11743;SDS011;5929;51.906;7.674;2023-07-02T12:18:05;14.27;;;5.65;;
11743;SDS011;5929;51.906;7.674;2023-07-02T12:20:33;12.05;;;5.57;;
11743;SDS011;5929;51.906;7.674;2023-07-02T12:23:01;15.88;;;6.03;;
11743;SDS011;5929;51.906;7.674;2023-07-02T12:25:28;10.23;;;4.90;;
11743;SDS011;5929;51.906;7.674;2023-07-02T12:27:54;14.45;;;5.47;;
11743;SDS011;5929;51.906;7.674;2023-07-02T12:30:21;12.55;;;5.70;;
11743;SDS011;5929;51.906;7.674;2023-07-02T12:32:48;12.60;;;5.68;;
11743;SDS011;5929;51.906;7.674;2023-07-02T12:35:15;14.45;;;6.10;;
11743;SDS011;5929;51.906;7.674;2023-07-02T12:37:42;14.27;;;5.47;;
11743;SDS011;5929;51.906;7.674;2023-07-02T12:40:11;14.52;;;5.60;;
11743;SDS011;5929;51.906;7.674;2023-07-02T12:42:40;10.23;;;5.45;;
11743;SDS011;5929;51.906;7.674;2023-07-02T12:45:08;11.88;;;5.63;;
11743;SDS011;5929;51.906;7.674;2023-07-02T12:47:36;14.68;;;5.72;;
11743;SDS011;5929;51.906;7.674;2023-07-02T12:50:03;12.38;;;6.00;;
11743;SDS011;5929;51.906;7.674;2023-07-02T12:52:30;13.40;;;5.75;;
11743;SDS011;5929;51.906;7.674;2023-07-02T12:54:58;12.40;;;5.70;;
11743;SDS011;5929;51.906;7.674;2023-07-02T12:57:26;13.00;;;5.53;;
11743;SDS011;5929;51.906;7.674;2023-07-02T12:59:55;13.20;;;5.90;;
11743;SDS011;5929;51.906;7.674;2023-07-02T13:02:23;11.75;;;5.07;;
11743;SDS011;5929;51.906;7.674;2023-07-02T13:04:50;14.23;;;6.18;;
11743;SDS011;5929;51.906;7.674;2023-07-02T13:07:17;13.50;;;5.57;;
11743;SDS011;5929;51.906;7.674;2023-07-02T13:09:44;13.68;;;5.90;;
11743;SDS011;5929;51.906;7.674;2023-07-02T13:12:10;14.43;;;6.03;;
11743;SDS011;5929;51.906;7.674;2023-07-02T13:14:42;11.32;;;5.63;;
11743;SDS011;5929;51.906;7.674;2023-07-02T13:17:09;15.50;;;6.20;;
11743;SDS011;5929;51.906;7.674;2023-07-02T13:19:35;13.88;;;6.07;;
11743;SDS011;5929;51.906;7.674;2023-07-02T13:22:02;14.35;;;5.90;;
11743;SDS011;5929;51.906;7.674;2023-07-02T13:24:33;12.68;;;5.85;;
11743;SDS011;5929;51.906;7.674;2023-07-02T13:27:04;14.15;;;5.63;;
11743;SDS011;5929;51.906;7.674;2023-07-02T13:29:37;12.13;;;5.72;;
11743;SDS011;5929;51.906;7.674;2023-07-02T13:32:05;13.05;;;5.68;;
11743;SDS011;5929;51.906;7.674;2023-07-02T13:34:33;11.48;;;5.25;;
11743;SDS011;5929;51.906;7.674;2023-07-02T13:37:00;12.25;;;5.50;;
11743;SDS011;5929;51.906;7.674;2023-07-02T13:39:30;12.05;;;5.80;;
11743;SDS011;5929;51.906;7.674;2023-07-02T13:41:56;13.60;;;5.88;;
11743;SDS011;5929;51.906;7.674;2023-07-02T13:44:26;14.65;;;6.07;;
11743;SDS011;5929;51.906;7.674;2023-07-02T13:46:53;13.10;;;5.57;;
11743;SDS011;5929;51.906;7.674;2023-07-02T13:49:21;16.30;;;5.82;;
11743;SDS011;5929;51.906;7.674;2023-07-02T13:51:48;10.80;;;5.25;;
11743;SDS011;5929;51.906;7.674;2023-07-02T13:54:15;14.90;;;6.05;;
11743;SDS011;5929;51.906;7.674;2023-07-02T13:56:43;14.55;;;6.18;;
11743;SDS011;5929;51.906;7.674;2023-07-02T13:59:14;14.13;;;5.75;;
11743;SDS011;5929;51.906;7.674;2023-07-02T14:01:42;15.02;;;6.22;;
11743;SDS011;5929;51.906;7.674;2023-07-02T14:04:10;14.70;;;6.20;;
11743;SDS011;5929;51.906;7.674;2023-07-02T14:06:37;15.23;;;6.32;;
11743;SDS011;5929;51.906;7.674;2023-07-02T14:09:04;15.32;;;5.72;;
11743;SDS011;5929;51.906;7.674;2023-07-02T14:11:32;11.30;;;5.60;;
11743;SDS011;5929;51.906;7.674;2023-07-02T14:14:00;14.82;;;6.65;;
11743;SDS011;5929;51.906;7.674;2023-07-02T14:16:28;14.80;;;6.18;;
11743;SDS011;5929;51.906;7.674;2023-07-02T14:18:55;18.13;;;5.75;;
11743;SDS011;5929;51.906;7.674;2023-07-02T14:21:22;12.60;;;6.10;;
11743;SDS011;5929;51.906;7.674;2023-07-02T14:23:49;16.05;;;6.32;;
11743;SDS011;5929;51.906;7.674;2023-07-02T14:26:16;14.32;;;5.93;;
11743;SDS011;5929;51.906;7.674;2023-07-02T14:28:43;12.45;;;5.57;;
11743;SDS011;5929;51.906;7.674;2023-07-02T14:31:12;11.65;;;5.78;;
11743;SDS011;5929;51.906;7.674;2023-07-02T14:33:40;14.25;;;5.90;;
11743;SDS011;5929;51.906;7.674;2023-07-02T14:36:07;13.32;;;5.97;;
11743;SDS011;5929;51.906;7.674;2023-07-02T14:38:34;13.15;;;5.63;;
11743;SDS011;5929;51.906;7.674;2023-07-02T14:41:01;11.32;;;5.63;;
11743;SDS011;5929;51.906;7.674;2023-07-02T14:43:29;13.43;;;5.68;;
11743;SDS011;5929;51.906;7.674;2023-07-02T14:45:57;11.20;;;6.10;;
11743;SDS011;5929;51.906;7.674;2023-07-02T14:48:25;17.63;;;6.57;;
11743;SDS011;5929;51.906;7.674;2023-07-02T14:50:54;16.92;;;6.32;;
11743;SDS011;5929;51.906;7.674;2023-07-02T14:53:23;12.25;;;5.85;;
11743;SDS011;5929;51.906;7.674;2023-07-02T14:55:53;14.38;;;5.95;;
11743;SDS011;5929;51.906;7.674;2023-07-02T14:58:23;13.25;;;5.65;;
11743;SDS011;5929;51.906;7.674;2023-07-02T15:00:54;13.38;;;5.88;;
11743;SDS011;5929;51.906;7.674;2023-07-02T15:03:23;15.02;;;6.10;;
11743;SDS011;5929;51.906;7.674;2023-07-02T15:05:51;9.98;;;4.78;;
11743;SDS011;5929;51.906;7.674;2023-07-02T15:08:20;15.23;;;6.43;;